RSC609 GCLA-GCXO
Flight info
| Callsign | RSC609 |
|---|---|
| Flight time | 0h 19m |
| Altitude | 13000 |
| Route | TFN |
| Aircraft | AT76/M-SDFGRY/LB1 |
Departure
| Time | 2026-04-22 13:52 |
|---|---|
| Airport | La Palma Airport (GCLA) |
Arrival
| Time | 2026-04-22 14:12 |
|---|---|
| Airport | Tenerife Norte-Ciudad de La Laguna Airport (GCXO) |
| Time | Latitude | Longitude | Altitude | Speed | Heading |
|---|---|---|---|---|---|
| 2026-04-22 13:42 | 28.62247 | -17.75357 | 100 ft | 0 kts | 89° |
| 2026-04-22 13:48 | 28.62247 | -17.75377 | 100 ft | 5 kts | 92° |
| 2026-04-22 13:48 | 28.62256 | -17.75423 | 100 ft | 5 kts | 161° |
| 2026-04-22 13:49 | 28.62262 | -17.75427 | 100 ft | 2 kts | 187° |
| 2026-04-22 13:49 | 28.62244 | -17.75460 | 101 ft | 10 kts | 256° |
| 2026-04-22 13:49 | 28.62196 | -17.75547 | 103 ft | 19 kts | 189° |
| 2026-04-22 13:49 | 28.61978 | -17.75545 | 106 ft | 45 kts | 177° |
| 2026-04-22 13:50 | 28.61798 | -17.75543 | 109 ft | 30 kts | 183° |
| 2026-04-22 13:50 | 28.61674 | -17.75538 | 108 ft | 1 kts | 70° |
| 2026-04-22 13:50 | 28.61680 | -17.75537 | 108 ft | 0 kts | 7° |
| 2026-04-22 13:50 | 28.61692 | -17.75537 | 108 ft | 0 kts | 358° |
| 2026-04-22 13:51 | 28.61699 | -17.75538 | 108 ft | 9 kts | 358° |
| 2026-04-22 13:51 | 28.61853 | -17.75543 | 105 ft | 55 kts | 359° |
| 2026-04-22 13:52 | 28.62437 | -17.75553 | 97 ft | 112 kts | 358° |
| 2026-04-22 13:52 | 28.63272 | -17.75574 | 472 ft | 119 kts | 359° |
| 2026-04-22 13:52 | 28.64050 | -17.75284 | 740 ft | 132 kts | 47° |
| 2026-04-22 13:52 | 28.64406 | -17.74247 | 863 ft | 151 kts | 79° |
| 2026-04-22 13:53 | 28.64466 | -17.72966 | 911 ft | 173 kts | 86° |
| 2026-04-22 13:53 | 28.64501 | -17.71591 | 1257 ft | 174 kts | 88° |
| 2026-04-22 13:53 | 28.64677 | -17.70239 | 1610 ft | 172 kts | 68° |
| 2026-04-22 13:53 | 28.64906 | -17.68907 | 1883 ft | 175 kts | 93° |
| 2026-04-22 13:54 | 28.64834 | -17.67517 | 2224 ft | 177 kts | 92° |
| 2026-04-22 13:54 | 28.64760 | -17.66111 | 2553 ft | 179 kts | 94° |
| 2026-04-22 13:54 | 28.64667 | -17.64690 | 2896 ft | 181 kts | 95° |
| 2026-04-22 13:54 | 28.64560 | -17.63270 | 3231 ft | 183 kts | 95° |
| 2026-04-22 13:55 | 28.64454 | -17.61825 | 3565 ft | 183 kts | 95° |
| 2026-04-22 13:55 | 28.64349 | -17.60373 | 3894 ft | 184 kts | 95° |
| 2026-04-22 13:55 | 28.64213 | -17.58417 | 4341 ft | 186 kts | 95° |
| 2026-04-22 13:55 | 28.64142 | -17.57444 | 4592 ft | 187 kts | 96° |
| 2026-04-22 13:56 | 28.64037 | -17.55963 | 4949 ft | 188 kts | 96° |
| 2026-04-22 13:56 | 28.63933 | -17.54470 | 5249 ft | 190 kts | 96° |
| 2026-04-22 13:56 | 28.63827 | -17.52982 | 5567 ft | 191 kts | 97° |
| 2026-04-22 13:56 | 28.63717 | -17.51463 | 5876 ft | 193 kts | 96° |
| 2026-04-22 13:57 | 28.63608 | -17.49931 | 6162 ft | 194 kts | 97° |
| 2026-04-22 13:57 | 28.63500 | -17.48398 | 6535 ft | 192 kts | 97° |
| 2026-04-22 13:57 | 28.63395 | -17.46869 | 6907 ft | 198 kts | 97° |
| 2026-04-22 13:57 | 28.63281 | -17.45294 | 7290 ft | 200 kts | 98° |
| 2026-04-22 13:58 | 28.63165 | -17.43703 | 7690 ft | 202 kts | 98° |
| 2026-04-22 13:58 | 28.63051 | -17.42118 | 8079 ft | 204 kts | 98° |
| 2026-04-22 13:58 | 28.62935 | -17.40499 | 8471 ft | 206 kts | 98° |
| 2026-04-22 13:58 | 28.62819 | -17.38862 | 8854 ft | 209 kts | 98° |
| 2026-04-22 13:59 | 28.62694 | -17.37150 | 8962 ft | 225 kts | 98° |
| 2026-04-22 13:59 | 28.62560 | -17.35308 | 9001 ft | 240 kts | 98° |
| 2026-04-22 13:59 | 28.62419 | -17.33361 | 9029 ft | 252 kts | 98° |
| 2026-04-22 13:59 | 28.62277 | -17.31330 | 9025 ft | 262 kts | 98° |
| 2026-04-22 14:00 | 28.62127 | -17.29233 | 9030 ft | 269 kts | 97° |
| 2026-04-22 14:00 | 28.61973 | -17.27115 | 9030 ft | 274 kts | 98° |
| 2026-04-22 14:00 | 28.61819 | -17.24928 | 9030 ft | 278 kts | 98° |
| 2026-04-22 14:00 | 28.61659 | -17.22722 | 9032 ft | 281 kts | 98° |
| 2026-04-22 14:01 | 28.61497 | -17.20497 | 9031 ft | 283 kts | 97° |
| 2026-04-22 14:01 | 28.61323 | -17.18268 | 9029 ft | 283 kts | 99° |
| 2026-04-22 14:01 | 28.61064 | -17.16041 | 9030 ft | 284 kts | 100° |
| 2026-04-22 14:01 | 28.60780 | -17.13812 | 9033 ft | 284 kts | 103° |
| 2026-04-22 14:02 | 28.60418 | -17.11601 | 9034 ft | 285 kts | 104° |
| 2026-04-22 14:02 | 28.60061 | -17.09412 | 9025 ft | 286 kts | 103° |
| 2026-04-22 14:02 | 28.59745 | -17.07176 | 9031 ft | 286 kts | 102° |
| 2026-04-22 14:02 | 28.59455 | -17.04936 | 9028 ft | 286 kts | 102° |
| 2026-04-22 14:03 | 28.59160 | -17.02695 | 9029 ft | 286 kts | 102° |
| 2026-04-22 14:03 | 28.58861 | -17.00449 | 9035 ft | 286 kts | 102° |
| 2026-04-22 14:03 | 28.58563 | -16.98200 | 9032 ft | 287 kts | 102° |
| 2026-04-22 14:03 | 28.58267 | -16.95962 | 9031 ft | 287 kts | 102° |
| 2026-04-22 14:04 | 28.57969 | -16.93716 | 9028 ft | 287 kts | 102° |
| 2026-04-22 14:04 | 28.57670 | -16.91472 | 9029 ft | 287 kts | 102° |
| 2026-04-22 14:04 | 28.57372 | -16.89228 | 9034 ft | 286 kts | 102° |
| 2026-04-22 14:04 | 28.57077 | -16.87021 | 9030 ft | 286 kts | 102° |
| 2026-04-22 14:05 | 28.56778 | -16.84779 | 9031 ft | 286 kts | 102° |
| 2026-04-22 14:05 | 28.56478 | -16.82539 | 9038 ft | 286 kts | 102° |
| 2026-04-22 14:05 | 28.55879 | -16.78055 | 9036 ft | 286 kts | 102° |
| 2026-04-22 14:06 | 28.55577 | -16.75813 | 9038 ft | 286 kts | 102° |
| 2026-04-22 14:06 | 28.55276 | -16.73574 | 9040 ft | 286 kts | 102° |
| 2026-04-22 14:06 | 28.54977 | -16.71334 | 9032 ft | 287 kts | 102° |
| 2026-04-22 14:06 | 28.54677 | -16.69124 | 8801 ft | 285 kts | 102° |
| 2026-04-22 14:07 | 28.54386 | -16.66900 | 8526 ft | 283 kts | 101° |
| 2026-04-22 14:07 | 28.54189 | -16.64674 | 8206 ft | 281 kts | 97° |
| 2026-04-22 14:07 | 28.54042 | -16.62463 | 7801 ft | 278 kts | 97° |
| 2026-04-22 14:07 | 28.53911 | -16.60308 | 7346 ft | 276 kts | 96° |
| 2026-04-22 14:08 | 28.53781 | -16.58135 | 6868 ft | 274 kts | 96° |
| 2026-04-22 14:08 | 28.53656 | -16.55977 | 6396 ft | 273 kts | 96° |
| 2026-04-22 14:08 | 28.53532 | -16.53829 | 5879 ft | 271 kts | 96° |
| 2026-04-22 14:08 | 28.53408 | -16.51702 | 5367 ft | 269 kts | 95° |
| 2026-04-22 14:09 | 28.53210 | -16.49606 | 4924 ft | 263 kts | 103° |
| 2026-04-22 14:09 | 28.52770 | -16.47638 | 4727 ft | 251 kts | 110° |
| 2026-04-22 14:09 | 28.52130 | -16.45842 | 4469 ft | 240 kts | 114° |
| 2026-04-22 14:09 | 28.51535 | -16.44141 | 3946 ft | 223 kts | 110° |
| 2026-04-22 14:10 | 28.51042 | -16.42538 | 3500 ft | 209 kts | 110° |
| 2026-04-22 14:10 | 28.50549 | -16.41047 | 3184 ft | 195 kts | 111° |
| 2026-04-22 14:10 | 28.50082 | -16.39670 | 2889 ft | 178 kts | 110° |
| 2026-04-22 14:10 | 28.49664 | -16.38410 | 2636 ft | 164 kts | 109° |
| 2026-04-22 14:11 | 28.49283 | -16.37244 | 2415 ft | 151 kts | 109° |
| 2026-04-22 14:11 | 28.48933 | -16.36157 | 2205 ft | 143 kts | 108° |
| 2026-04-22 14:11 | 28.48606 | -16.35150 | 2059 ft | 107 kts | 108° |
| 2026-04-22 14:11 | 28.48420 | -16.34617 | 2048 ft | 67 kts | 115° |
| 2026-04-22 14:12 | 28.48284 | -16.34190 | 2044 ft | 50 kts | 107° |
| 2026-04-22 14:12 | 28.48340 | -16.34172 | 2041 ft | 29 kts | 315° |
| 2026-04-22 14:12 | 28.48446 | -16.34346 | 2044 ft | 23 kts | 288° |
| 2026-04-22 14:12 | 28.48501 | -16.34512 | 2048 ft | 25 kts | 290° |
| 2026-04-22 14:13 | 28.48552 | -16.34626 | 2048 ft | 10 kts | 346° |
| 2026-04-22 14:13 | 28.48653 | -16.34589 | 2048 ft | 0 kts | 21° |